Time;durP1;ratioP1;P1;durP2;ratioP2;P2;SDS_P1;SDS_P2;PMS_P1;PMS_P2;Temp;Humidity;BMP_temperature;BMP_pressure;BME280_temperature;BME280_humidity;BME280_pressure;Samples;Min_cycle;Max_cycle;Signal;HPM_P1;HPM_P2
2023/11/01 00:01:33;;;;;;;3.00;1.90;;;10.60;13.20;;;;;;7365085;19;20014;-71
2023/11/01 00:04:06;;;;;;;3.95;1.95;;;10.60;11.20;;;;;;7365716;19;20006;-72
2023/11/01 00:06:36;;;;;;;7.03;2.05;;;10.60;13.70;;;;;;7368187;19;20018;-71
2023/11/01 00:09:06;;;;;;;4.88;2.15;;;10.60;10.40;;;;;;7367900;19;20006;-71
2023/11/01 00:11:36;;;;;;;3.47;1.50;;;10.70;11.20;;;;;;7364535;19;20018;-71
2023/11/01 00:14:06;;;;;;;6.18;1.90;;;10.70;9.90;;;;;;7363805;19;20478;-71
2023/11/01 00:16:36;;;;;;;3.17;1.65;;;10.70;9.90;;;;;;7366525;19;20007;-72
2023/11/01 00:19:09;;;;;;;3.90;1.77;;;10.80;10.90;;;;;;7368698;19;20019;-71
2023/11/01 00:21:39;;;;;;;3.20;1.88;;;10.70;11.30;;;;;;7367020;19;20031;-71
2023/11/01 00:24:09;;;;;;;4.18;1.85;;;10.70;15.80;;;;;;7364728;19;20017;-71
2023/11/01 00:26:39;;;;;;;6.68;1.73;;;10.70;19.00;;;;;;7367322;19;20035;-72
2023/11/01 00:29:09;;;;;;;2.83;1.58;;;10.70;20.00;;;;;;7369511;19;20003;-71
2023/11/01 00:31:39;;;;;;;5.72;1.67;;;10.70;20.00;;;;;;7364997;19;21204;-71
2023/11/01 00:34:12;;;;;;;4.03;1.50;;;10.70;18.00;;;;;;7363822;19;20006;-71
2023/11/01 00:36:42;;;;;;;3.55;1.50;;;10.70;17.50;;;;;;7367662;19;20023;-71
2023/11/01 00:39:12;;;;;;;2.53;1.80;;;10.70;19.80;;;;;;7366779;19;20041;-71
2023/11/01 00:41:42;;;;;;;3.92;1.67;;;10.70;18.10;;;;;;7366667;19;20034;-71
2023/11/01 00:44:12;;;;;;;5.35;1.77;;;10.70;17.50;;;;;;7364156;19;20018;-70
2023/11/01 00:46:42;;;;;;;3.35;1.45;;;10.70;16.80;;;;;;7367838;19;20122;-72
2023/11/01 00:49:15;;;;;;;1.73;1.40;;;10.70;16.90;;;;;;7366197;19;20093;-72
2023/11/01 00:51:45;;;;;;;3.50;1.40;;;10.70;20.30;;;;;;7366873;19;20082;-71
2023/11/01 00:54:15;;;;;;;3.25;1.58;;;10.70;17.60;;;;;;7363246;19;20015;-71
2023/11/01 00:56:45;;;;;;;5.63;1.65;;;10.70;15.80;;;;;;7366840;19;20015;-71
2023/11/01 00:59:15;;;;;;;4.35;1.42;;;10.80;15.60;;;;;;7366664;19;20019;-71
2023/11/01 01:01:45;;;;;;;4.63;1.58;;;10.80;12.60;;;;;;7364284;19;20027;-72
2023/11/01 01:04:17;;;;;;;3.00;1.60;;;10.80;9.20;;;;;;7364249;19;20018;-71
2023/11/01 01:06:47;;;;;;;4.18;1.40;;;10.80;10.40;;;;;;7366499;19;20048;-71
2023/11/01 01:09:18;;;;;;;2.92;1.10;;;10.80;8.50;;;;;;7366054;19;20035;-71
2023/11/01 01:11:47;;;;;;;5.05;1.48;;;10.80;8.00;;;;;;7366994;19;20006;-71
2023/11/01 01:14:19;;;;;;;2.55;1.23;;;10.80;7.80;;;;;;7362604;19;20020;-71
2023/11/01 01:16:49;;;;;;;3.60;1.27;;;10.80;4.40;;;;;;7366749;19;20381;-71
2023/11/01 01:19:22;;;;;;;3.35;1.30;;;10.80;5.90;;;;;;7365948;19;20090;-70
2023/11/01 01:21:52;;;;;;;2.45;1.17;;;10.80;3.10;;;;;;7364005;19;20014;-70
2023/11/01 01:24:23;;;;;;;2.90;1.27;;;10.80;4.70;;;;;;7359132;19;20046;-71
2023/11/01 01:26:53;;;;;;;2.33;1.25;;;10.80;4.70;;;;;;7358292;19;20018;-71
2023/11/01 01:29:23;;;;;;;3.15;1.30;;;10.90;5.60;;;;;;7363479;19;20021;-72
2023/11/01 01:31:53;;;;;;;4.70;1.20;;;10.90;4.10;;;;;;7362632;19;20018;-72
2023/11/01 01:34:29;;;;;;;2.50;1.15;;;11.00;2.90;;;;;;7360598;19;20794;-71
2023/11/01 01:36:59;;;;;;;2.90;1.00;;;11.00;1.00;;;;;;7366042;19;20400;-72
2023/11/01 01:39:29;;;;;;;3.67;1.35;;;11.00;1.00;;;;;;7363430;19;20006;-72
2023/11/01 01:41:59;;;;;;;4.82;1.30;;;11.10;1.00;;;;;;7362892;19;20011;-71
2023/11/01 01:44:29;;;;;;;4.13;1.38;;;11.20;1.00;;;;;;7361509;19;20205;-71
2023/11/01 01:47:00;;;;;;;2.97;1.23;;;11.20;1.00;;;;;;7366034;19;20015;-71
2023/11/01 01:49:33;;;;;;;4.97;1.88;;;11.30;1.00;;;;;;7364100;19;20090;-71
2023/11/01 01:52:14;;;;;;;3.55;1.13;;;11.30;1.00;;;;;;7365091;19;20006;-72
2023/11/01 01:54:45;;;;;;;3.35;1.20;;;11.30;1.00;;;;;;7359768;19;20010;-71
2023/11/01 01:57:15;;;;;;;3.85;1.17;;;11.30;1.00;;;;;;7364715;19;20045;-70
2023/11/01 01:59:44;;;;;;;6.78;1.45;;;11.30;1.00;;;;;;7364656;19;20006;-70
2023/11/01 02:02:15;;;;;;;4.82;1.20;;;11.30;1.00;;;;;;7363099;19;20029;-71
2023/11/01 02:04:49;;;;;;;4.28;1.25;;;11.30;1.00;;;;;;7360864;19;20018;-69
2023/11/01 02:07:19;;;;;;;4.30;1.05;;;11.30;1.00;;;;;;7363628;19;20017;-70
2023/11/01 02:09:49;;;;;;;4.05;1.33;;;11.30;1.00;;;;;;7366156;19;20006;-70
2023/11/01 02:12:20;;;;;;;6.68;1.48;;;11.20;1.00;;;;;;7364204;19;20017;-70
2023/11/01 02:14:50;;;;;;;3.17;1.40;;;11.10;1.00;;;;;;7359308;19;20070;-71
2023/11/01 02:17:20;;;;;;;5.20;1.50;;;11.00;1.00;;;;;;7358563;19;20015;-71
2023/11/01 02:19:53;;;;;;;3.80;1.40;;;10.90;1.00;;;;;;7361363;19;20003;-71
2023/11/01 02:22:23;;;;;;;4.05;1.30;;;10.90;1.00;;;;;;7361451;19;20019;-70
2023/11/01 02:24:56;;;;;;;5.32;1.38;;;10.90;1.00;;;;;;7360772;19;20017;-70
2023/11/01 02:27:28;;;;;;;5.47;1.20;;;10.90;1.00;;;;;;7363359;19;20447;-69
2023/11/01 02:29:58;;;;;;;3.60;1.20;;;10.90;1.00;;;;;;7364329;19;20352;-70
2023/11/01 02:32:31;;;;;;;5.97;2.20;;;10.90;1.00;;;;;;7362228;19;20022;-69
2023/11/01 02:35:01;;;;;;;6.97;1.10;;;10.90;1.00;;;;;;7359513;19;20034;-70
2023/11/01 02:37:31;;;;;;;3.42;1.00;;;10.90;1.00;;;;;;7363315;19;20014;-70
2023/11/01 02:40:03;;;;;;;4.20;1.48;;;10.90;1.00;;;;;;7364321;19;20035;-69
2023/11/01 02:42:34;;;;;;;2.80;1.05;;;10.90;1.00;;;;;;7362704;19;20017;-70
2023/11/01 02:45:04;;;;;;;4.03;1.42;;;11.00;1.00;;;;;;7360810;19;20366;-69
2023/11/01 02:47:34;;;;;;;5.72;1.15;;;11.00;1.00;;;;;;7362339;19;20010;-69
2023/11/01 02:50:04;;;;;;;3.13;1.35;;;11.00;1.00;;;;;;7363324;19;20010;-70
2023/11/01 02:52:34;;;;;;;4.43;1.48;;;10.90;1.00;;;;;;7361790;19;20011;-71
2023/11/01 02:55:09;;;;;;;3.42;1.17;;;10.90;1.00;;;;;;7359974;19;20090;-70
2023/11/01 02:57:40;;;;;;;4.18;1.38;;;10.90;1.00;;;;;;7362541;19;20006;-70
2023/11/01 03:00:18;;;;;;;6.68;1.48;;;10.90;1.00;;;;;;7363311;19;20082;-70
2023/11/01 03:02:50;;;;;;;3.50;1.10;;;10.90;1.00;;;;;;7363278;19;20114;-70
2023/11/01 03:05:20;;;;;;;3.65;1.23;;;10.90;1.00;;;;;;7360589;19;20110;-70
2023/11/01 03:07:50;;;;;;;6.88;1.35;;;10.90;1.00;;;;;;7361970;19;20041;-70
2023/11/01 03:10:23;;;;;;;2.58;1.08;;;11.00;1.00;;;;;;7358358;19;20014;-70
2023/11/01 03:12:53;;;;;;;1.98;0.93;;;11.00;1.00;;;;;;7364026;19;20013;-70
2023/11/01 03:15:23;;;;;;;3.65;1.10;;;11.00;1.00;;;;;;7357091;19;20025;-70
2023/11/01 03:17:54;;;;;;;4.22;1.50;;;10.90;1.00;;;;;;7364090;19;20006;-70
2023/11/01 03:20:24;;;;;;;3.38;1.40;;;10.90;1.00;;;;;;7362529;19;20014;-70
2023/11/01 03:22:54;;;;;;;2.55;1.20;;;10.90;1.00;;;;;;7361954;19;20040;-70
2023/11/01 03:25:27;;;;;;;5.65;1.70;;;10.80;1.00;;;;;;7362026;19;20109;-70
2023/11/01 03:27:57;;;;;;;6.03;3.15;;;10.80;1.00;;;;;;7370570;19;20007;-70
2023/11/01 03:30:27;;;;;;;6.20;2.75;;;10.70;1.00;;;;;;7367808;19;20013;-69
2023/11/01 03:32:57;;;;;;;12.60;2.58;;;10.60;1.00;;;;;;7368482;19;20020;-70
2023/11/01 03:35:27;;;;;;;3.45;1.92;;;10.50;1.00;;;;;;7363516;19;20079;-70
2023/11/01 03:37:57;;;;;;;6.68;1.92;;;10.50;1.00;;;;;;7369785;19;20035;-70
2023/11/01 03:40:29;;;;;;;3.13;1.40;;;10.50;1.00;;;;;;7368806;19;20019;-71
2023/11/01 03:42:59;;;;;;;8.27;1.92;;;10.40;1.70;;;;;;7367210;19;20011;-70
2023/11/01 03:45:29;;;;;;;5.22;2.28;;;10.30;5.60;;;;;;7363155;19;20049;-70
2023/11/01 03:47:59;;;;;;;4.63;1.85;;;10.20;6.90;;;;;;7368778;19;20348;-70
2023/11/01 03:50:29;;;;;;;6.53;2.55;;;10.20;10.30;;;;;;7367072;19;20014;-70
2023/11/01 03:52:59;;;;;;;9.50;2.30;;;10.10;13.30;;;;;;7367922;19;20003;-71
2023/11/01 03:55:32;;;;;;;4.28;1.88;;;10.10;14.90;;;;;;7363631;19;20011;-70
2023/11/01 03:58:02;;;;;;;8.43;2.17;;;10.10;14.50;;;;;;7367784;19;20035;-70
2023/11/01 04:00:32;;;;;;;6.53;2.15;;;10.00;16.80;;;;;;7371119;19;20014;-70
2023/11/01 04:03:01;;;;;;;6.30;2.42;;;10.00;13.20;;;;;;7394176;19;20046;-70
2023/11/01 04:05:32;;;;;;;10.68;2.38;;;10.00;14.60;;;;;;7367114;19;20011;-69
2023/11/01 04:08:01;;;;;;;5.85;2.22;;;10.00;13.00;;;;;;7368665;19;20007;-70
2023/11/01 04:10:34;;;;;;;7.30;2.53;;;10.00;13.30;;;;;;7367158;19;20014;-70
2023/11/01 04:13:04;;;;;;;7.57;2.35;;;10.00;11.80;;;;;;7367422;19;20014;-70
2023/11/01 04:15:34;;;;;;;6.30;2.45;;;10.10;7.60;;;;;;7364345;19;20014;-70
2023/11/01 04:18:04;;;;;;;8.10;1.90;;;10.10;4.50;;;;;;7368277;19;20070;-69
2023/11/01 04:20:34;;;;;;;3.47;1.55;;;10.10;2.70;;;;;;7367875;19;21819;-70
2023/11/01 04:23:05;;;;;;;3.53;1.40;;;10.10;3.60;;;;;;7365217;19;20013;-70
2023/11/01 04:25:38;;;;;;;3.65;1.40;;;10.10;1.60;;;;;;7364030;19;20020;-70
2023/11/01 04:28:07;;;;;;;5.53;1.90;;;10.20;1.00;;;;;;7367616;19;20018;-69
2023/11/01 04:30:40;;;;;;;5.60;1.40;;;10.20;1.00;;;;;;7367643;19;20010;-70
2023/11/01 04:33:11;;;;;;;4.85;1.83;;;10.20;1.00;;;;;;7367552;19;20404;-70
2023/11/01 04:35:42;;;;;;;5.18;1.30;;;10.10;1.00;;;;;;7362230;19;20082;-70
2023/11/01 04:38:13;;;;;;;4.38;1.60;;;10.10;1.00;;;;;;7367313;19;20044;-70
2023/11/01 04:40:46;;;;;;;4.82;1.58;;;10.10;1.00;;;;;;7367066;19;20454;-70
2023/11/01 04:43:17;;;;;;;5.30;2.22;;;10.00;1.00;;;;;;7364477;19;20102;-70
2023/11/01 04:45:48;;;;;;;5.47;1.73;;;9.90;1.00;;;;;;7364336;19;20014;-70
2023/11/01 04:48:17;;;;;;;4.03;1.58;;;9.90;1.00;;;;;;7366727;19;20011;-70
2023/11/01 04:50:48;;;;;;;2.70;1.60;;;9.90;1.00;;;;;;7365831;19;20029;-70
2023/11/01 04:53:19;;;;;;;4.65;1.40;;;9.80;1.00;;;;;;7365486;19;20014;-69
2023/11/01 04:55:52;;;;;;;3.13;1.20;;;9.90;1.00;;;;;;7364260;19;20135;-70
2023/11/01 04:58:22;;;;;;;7.68;1.95;;;9.80;1.00;;;;;;7366852;19;20036;-70
2023/11/01 05:00:52;;;;;;;5.15;1.42;;;9.80;1.00;;;;;;7366135;19;20015;-69
2023/11/01 05:03:22;;;;;;;2.78;1.40;;;9.80;1.00;;;;;;7362820;19;20861;-69
2023/11/01 05:05:52;;;;;;;4.70;1.52;;;9.70;1.00;;;;;;7363910;19;20018;-70
2023/11/01 05:08:22;;;;;;;7.85;1.80;;;9.70;1.00;;;;;;7365776;19;20095;-71
2023/11/01 05:10:55;;;;;;;2.95;1.52;;;9.70;1.50;;;;;;7366408;19;20968;-69
2023/11/01 05:13:24;;;;;;;5.90;1.40;;;9.60;3.70;;;;;;7365815;19;20046;-70
2023/11/01 05:15:55;;;;;;;4.10;1.75;;;9.60;2.60;;;;;;7363499;19;20158;-69
2023/11/01 05:18:27;;;;;;;5.85;1.70;;;9.60;3.50;;;;;;7366267;19;20023;-69
2023/11/01 05:20:57;;;;;;;6.30;1.40;;;9.60;2.90;;;;;;7361547;19;20006;-70
2023/11/01 05:23:28;;;;;;;2.95;1.38;;;9.60;2.00;;;;;;7363926;19;20014;-69
2023/11/01 05:26:01;;;;;;;2.40;1.10;;;9.70;1.00;;;;;;7365003;19;20516;-70
2023/11/01 05:28:31;;;;;;;5.50;1.35;;;9.70;1.00;;;;;;7363558;19;20527;-69
2023/11/01 05:31:01;;;;;;;4.35;1.40;;;9.60;1.00;;;;;;7365602;19;20006;-69
2023/11/01 05:33:33;;;;;;;3.03;1.27;;;9.60;1.00;;;;;;7362876;19;20014;-70
2023/11/01 05:36:06;;;;;;;4.68;1.35;;;9.60;1.00;;;;;;7364116;19;20007;-69
2023/11/01 05:38:36;;;;;;;4.93;1.50;;;9.50;1.00;;;;;;7365076;19;20533;-69
2023/11/01 05:41:11;;;;;;;5.10;1.40;;;9.50;4.20;;;;;;7364038;19;20135;-69
2023/11/01 05:43:41;;;;;;;4.00;1.80;;;9.50;5.00;;;;;;7362662;19;20010;-70
2023/11/01 05:46:11;;;;;;;4.03;1.70;;;9.50;7.30;;;;;;7364268;19;20102;-70
2023/11/01 05:48:42;;;;;;;4.72;1.85;;;9.50;3.80;;;;;;7364629;19;20014;-70
2023/11/01 05:51:12;;;;;;;6.07;1.73;;;9.50;4.80;;;;;;7365280;19;20020;-70
2023/11/01 05:53:42;;;;;;;6.35;1.98;;;9.50;5.50;;;;;;7362093;19;20106;-69
2023/11/01 05:56:15;;;;;;;4.15;2.05;;;9.50;1.90;;;;;;7364402;19;20015;-70
2023/11/01 05:58:45;;;;;;;4.07;1.77;;;9.50;2.70;;;;;;7363806;19;20077;-70
2023/11/01 06:01:15;;;;;;;2.95;1.48;;;9.40;5.40;;;;;;7363750;19;20034;-70
2023/11/01 06:03:50;;;;;;;6.65;1.50;;;9.40;5.30;;;;;;7361203;19;20031;-69
2023/11/01 06:06:20;;;;;;;4.60;1.50;;;9.40;5.60;;;;;;7363648;19;20014;-69
2023/11/01 06:08:50;;;;;;;2.92;1.30;;;9.40;4.40;;;;;;7364867;19;20470;-70
2023/11/01 06:11:24;;;;;;;4.80;1.48;;;9.40;1.00;;;;;;7362743;19;20007;-70
2023/11/01 06:13:54;;;;;;;4.00;1.60;;;9.40;1.00;;;;;;7361774;19;20698;-71
2023/11/01 06:16:24;;;;;;;5.13;1.45;;;9.40;1.00;;;;;;7363464;19;20042;-69
2023/11/01 06:18:54;;;;;;;3.53;1.60;;;9.40;1.00;;;;;;7364207;19;20030;-70
2023/11/01 06:21:24;;;;;;;2.83;1.60;;;9.40;1.90;;;;;;7362288;19;20647;-70
2023/11/01 06:23:54;;;;;;;3.28;1.38;;;9.30;2.10;;;;;;7362055;19;20394;-72
2023/11/01 06:26:27;;;;;;;5.35;1.92;;;9.30;3.60;;;;;;7363542;19;20215;-72
2023/11/01 06:28:57;;;;;;;5.45;2.17;;;9.30;7.10;;;;;;7363319;19;20083;-70
2023/11/01 06:31:27;;;;;;;5.20;2.05;;;9.40;6.60;;;;;;7360586;19;20023;-70
2023/11/01 06:33:57;;;;;;;9.55;1.70;;;9.30;6.20;;;;;;7363712;19;20010;-71
2023/11/01 06:36:27;;;;;;;7.70;2.38;;;9.40;5.90;;;;;;7365188;19;20016;-69
2023/11/01 06:38:57;;;;;;;4.90;2.08;;;9.50;4.10;;;;;;7365198;19;20019;-69
2023/11/01 06:41:30;;;;;;;3.30;1.65;;;9.50;3.20;;;;;;7357992;19;20003;-70
2023/11/01 06:44:00;;;;;;;2.67;1.90;;;9.60;2.00;;;;;;7359594;19;20010;-70
2023/11/01 06:46:29;;;;;;;6.57;1.60;;;9.70;1.00;;;;;;7362100;19;20018;-69
2023/11/01 06:48:59;;;;;;;5.22;1.83;;;9.70;1.00;;;;;;7363494;19;20011;-69
2023/11/01 06:51:29;;;;;;;5.55;2.35;;;9.70;1.00;;;;;;7362725;19;20054;-70
2023/11/01 06:54:00;;;;;;;8.85;2.33;;;9.70;1.00;;;;;;7359535;19;20018;-71
2023/11/01 06:56:32;;;;;;;3.38;1.65;;;9.70;1.00;;;;;;7362443;19;20058;-71
2023/11/01 06:59:03;;;;;;;5.10;1.50;;;9.70;1.00;;;;;;7362213;19;20010;-70
2023/11/01 07:01:35;;;;;;;3.80;1.80;;;9.70;1.00;;;;;;7369793;19;20014;-70
2023/11/01 07:04:05;;;;;;;4.15;2.00;;;9.70;1.00;;;;;;7366196;19;20067;-70
2023/11/01 07:06:35;;;;;;;5.18;1.58;;;9.70;1.00;;;;;;7367858;19;20011;-70
2023/11/01 07:09:06;;;;;;;2.83;1.38;;;9.70;1.00;;;;;;7367527;19;20018;-70
2023/11/01 07:11:38;;;;;;;2.58;1.40;;;9.70;1.00;;;;;;7368110;19;20023;-70
2023/11/01 07:14:09;;;;;;;4.35;1.50;;;9.70;1.00;;;;;;7366447;19;20011;-70
2023/11/01 07:16:41;;;;;;;5.28;1.60;;;9.80;1.00;;;;;;7367726;19;20049;-70
2023/11/01 07:19:11;;;;;;;4.53;1.48;;;9.90;1.00;;;;;;7368817;19;20010;-70
2023/11/01 07:21:41;;;;;;;2.47;1.27;;;9.90;1.00;;;;;;7364771;19;20018;-70
2023/11/01 07:24:12;;;;;;;4.55;1.48;;;9.90;1.00;;;;;;7365514;19;20025;-70
2023/11/01 07:26:45;;;;;;;8.25;2.00;;;10.00;1.00;;;;;;7368394;19;20010;-70
2023/11/01 07:29:15;;;;;;;6.57;1.50;;;10.00;1.00;;;;;;7369989;19;20006;-71
2023/11/01 07:31:45;;;;;;;3.00;1.42;;;10.10;1.00;;;;;;7367518;19;20011;-70
2023/11/01 07:34:15;;;;;;;3.53;1.80;;;10.10;1.00;;;;;;7370564;19;20074;-70
2023/11/01 07:36:44;;;;;;;4.40;1.50;;;10.30;1.00;;;;;;7389970;19;20417;-70
2023/11/01 07:39:14;;;;;;;4.30;1.60;;;10.30;1.00;;;;;;7367905;19;20615;-70
2023/11/01 07:41:47;;;;;;;4.10;1.40;;;10.30;1.00;;;;;;7368393;19;20026;-70
2023/11/01 07:44:19;;;;;;;2.38;1.23;;;10.40;1.00;;;;;;7365130;19;20025;-70
2023/11/01 07:46:49;;;;;;;3.15;1.48;;;10.50;1.00;;;;;;7367496;19;20611;-70
2023/11/01 07:49:19;;;;;;;2.55;1.30;;;10.60;1.00;;;;;;7367654;19;20079;-70
2023/11/01 07:51:48;;;;;;;3.50;1.38;;;10.60;1.00;;;;;;7366900;19;20014;-70
2023/11/01 07:54:19;;;;;;;2.88;1.60;;;10.70;1.00;;;;;;7365106;19;20025;-72
2023/11/01 07:56:51;;;;;;;3.30;1.60;;;10.70;1.00;;;;;;7367778;19;20025;-71
2023/11/01 07:59:22;;;;;;;2.47;1.50;;;10.80;1.00;;;;;;7366666;19;20101;-71
2023/11/01 08:01:52;;;;;;;4.43;1.67;;;10.80;1.00;;;;;;7367208;19;20102;-70
2023/11/01 08:04:22;;;;;;;3.50;1.55;;;10.90;1.00;;;;;;7364143;19;20018;-70
2023/11/01 08:06:52;;;;;;;5.63;1.85;;;11.00;1.00;;;;;;7366868;19;20097;-71
2023/11/01 08:09:22;;;;;;;5.53;1.67;;;11.20;1.00;;;;;;7366266;19;20078;-71
2023/11/01 08:11:55;;;;;;;4.18;1.23;;;11.10;1.00;;;;;;7366491;19;20015;-71
2023/11/01 08:14:25;;;;;;;3.45;1.40;;;11.20;1.00;;;;;;7363399;19;20635;-70
2023/11/01 08:16:56;;;;;;;2.80;1.30;;;11.30;1.00;;;;;;7367722;19;20074;-71
2023/11/01 08:19:26;;;;;;;5.97;2.03;;;11.40;1.00;;;;;;7366839;19;20032;-70
2023/11/01 08:21:56;;;;;;;3.95;1.80;;;11.40;1.00;;;;;;7368026;19;20097;-72
2023/11/01 08:24:26;;;;;;;4.07;1.58;;;11.50;1.00;;;;;;7364531;19;20022;-70
2023/11/01 08:26:59;;;;;;;3.42;1.40;;;11.60;1.00;;;;;;7366353;19;20109;-71
2023/11/01 08:29:29;;;;;;;6.82;1.48;;;11.70;1.00;;;;;;7368782;19;20048;-70
2023/11/01 08:31:59;;;;;;;2.03;1.17;;;11.80;1.00;;;;;;7367269;19;20035;-70
2023/11/01 08:34:28;;;;;;;2.80;1.50;;;12.00;1.00;;;;;;7363709;19;20010;-70
2023/11/01 08:36:58;;;;;;;3.20;1.10;;;12.00;1.00;;;;;;7366954;19;20024;-70
2023/11/01 08:39:28;;;;;;;3.97;1.40;;;12.20;1.00;;;;;;7365421;19;20007;-73
2023/11/01 08:42:01;;;;;;;3.97;1.00;;;12.20;1.00;;;;;;7367129;19;20056;-70
2023/11/01 08:44:31;;;;;;;1.90;1.13;;;12.20;1.00;;;;;;7358537;19;20003;-70
2023/11/01 08:47:05;;;;;;;3.22;1.40;;;12.20;1.00;;;;;;7365773;19;20023;-76
2023/11/01 08:49:37;;;;;;;4.07;1.52;;;12.30;1.00;;;;;;7365082;19;20014;-71
2023/11/01 08:52:08;;;;;;;2.55;1.40;;;12.30;1.00;;;;;;7365897;19;20017;-70
2023/11/01 08:54:40;;;;;;;2.20;1.15;;;12.30;1.00;;;;;;7361289;19;21468;-71
2023/11/01 08:57:12;;;;;;;2.97;1.30;;;12.50;1.00;;;;;;7364656;19;20432;-71
2023/11/01 08:59:42;;;;;;;4.50;1.10;;;12.70;1.00;;;;;;7365786;19;20007;-71
2023/11/01 09:02:12;;;;;;;4.78;1.30;;;12.80;1.00;;;;;;7365019;19;20014;-70
2023/11/01 09:04:44;;;;;;;4.63;1.40;;;12.90;1.00;;;;;;7363886;19;20045;-70
2023/11/01 09:07:14;;;;;;;2.20;1.23;;;13.00;1.00;;;;;;7365721;19;20014;-71
2023/11/01 09:09:44;;;;;;;1.63;0.98;;;13.10;1.00;;;;;;7363922;19;21442;-71
2023/11/01 09:12:17;;;;;;;6.57;1.85;;;13.20;1.00;;;;;;7365736;19;20156;-71
2023/11/01 09:14:47;;;;;;;10.63;2.20;;;13.20;1.00;;;;;;7362728;19;20014;-71
2023/11/01 09:17:18;;;;;;;2.03;1.17;;;13.30;1.00;;;;;;7364636;19;20017;-71
2023/11/01 09:19:48;;;;;;;3.65;1.42;;;13.40;1.00;;;;;;7365040;19;20011;-71
2023/11/01 09:22:18;;;;;;;4.65;1.52;;;13.50;1.00;;;;;;7364178;19;20006;-70
2023/11/01 09:24:47;;;;;;;3.35;1.20;;;13.70;1.00;;;;;;7361195;19;20093;-70
2023/11/01 09:27:20;;;;;;;3.78;1.15;;;13.80;1.00;;;;;;7363833;19;20015;-70
2023/11/01 09:29:50;;;;;;;30.13;18.52;;;13.90;1.00;;;;;;7364733;19;20030;-70
2023/11/01 09:32:20;;;;;;;4.07;1.50;;;14.10;1.00;;;;;;7362794;19;20018;-71
2023/11/01 09:34:50;;;;;;;4.80;1.23;;;14.10;1.00;;;;;;7360239;19;20388;-70
2023/11/01 09:37:22;;;;;;;3.03;0.98;;;14.20;1.00;;;;;;7363408;19;20086;-71
2023/11/01 09:39:52;;;;;;;2.60;1.10;;;14.50;1.00;;;;;;7363870;19;20105;-70
2023/11/01 09:42:26;;;;;;;2.60;0.85;;;14.50;1.00;;;;;;7363367;19;20026;-71
2023/11/01 09:44:58;;;;;;;2.45;0.80;;;14.50;1.00;;;;;;7360887;19;20111;-71
2023/11/01 09:47:28;;;;;;;1.63;1.00;;;14.40;1.00;;;;;;7363595;19;20010;-69
2023/11/01 09:49:59;;;;;;;1.15;0.60;;;14.50;1.00;;;;;;7367650;19;20011;-71
2023/11/01 09:52:31;;;;;;;2.75;0.88;;;14.60;1.00;;;;;;7364596;19;20078;-70
2023/11/01 09:55:04;;;;;;;2.35;1.00;;;14.80;1.00;;;;;;7360593;19;20003;-70
2023/11/01 09:57:37;;;;;;;3.25;1.20;;;14.90;1.00;;;;;;7363889;19;20010;-71
2023/11/01 10:00:10;;;;;;;1.20;0.80;;;14.90;1.00;;;;;;7363751;19;20010;-70
2023/11/01 10:02:40;;;;;;;2.30;0.90;;;14.90;1.00;;;;;;7360835;19;20014;-70
2023/11/01 10:05:11;;;;;;;2.53;0.88;;;14.90;1.00;;;;;;7361726;19;20010;-70
2023/11/01 10:07:41;;;;;;;2.97;1.00;;;15.00;1.00;;;;;;7361018;19;20548;-70
2023/11/01 10:10:18;;;;;;;3.28;0.90;;;15.00;1.00;;;;;;7362566;19;20012;-70
2023/11/01 10:12:50;;;;;;;1.85;0.85;;;14.90;1.00;;;;;;7361929;19;20048;-70
2023/11/01 10:15:21;;;;;;;4.55;0.90;;;14.90;1.00;;;;;;7360235;19;20461;-70
2023/11/01 10:17:54;;;;;;;5.85;0.80;;;15.00;1.00;;;;;;7363114;19;20090;-70
2023/11/01 10:20:27;;;;;;;1.92;0.70;;;15.20;1.00;;;;;;7360995;19;20030;-70
2023/11/01 10:22:57;;;;;;;2.53;0.88;;;15.30;1.00;;;;;;7360759;19;20006;-71
2023/11/01 10:25:27;;;;;;;1.25;0.70;;;15.50;1.00;;;;;;7358064;19;20937;-71
2023/11/01 10:28:01;;;;;;;2.10;0.63;;;15.50;1.00;;;;;;7360179;19;20343;-70
2023/11/01 10:30:31;;;;;;;2.30;0.90;;;15.50;1.00;;;;;;7362517;19;20014;-70
2023/11/01 10:33:02;;;;;;;2.75;1.00;;;15.60;1.00;;;;;;7361228;19;20023;-69
2023/11/01 10:35:33;;;;;;;5.00;1.55;;;15.70;1.00;;;;;;7360381;19;20017;-70
2023/11/01 10:38:05;;;;;;;3.17;1.15;;;15.70;1.00;;;;;;7360689;19;20027;-70
2023/11/01 10:40:36;;;;;;;2.92;0.80;;;15.60;1.00;;;;;;7361505;19;20006;-70
2023/11/01 10:43:11;;;;;;;3.30;0.95;;;15.60;1.00;;;;;;7360227;19;20488;-70
2023/11/01 10:45:41;;;;;;;2.88;0.80;;;15.80;1.00;;;;;;7358254;19;20041;-70
2023/11/01 10:48:13;;;;;;;2.22;0.77;;;15.90;1.00;;;;;;7361059;19;20089;-70
2023/11/01 10:50:46;;;;;;;1.58;0.80;;;16.00;1.00;;;;;;7361456;19;20562;-70
2023/11/01 10:53:16;;;;;;;2.47;0.77;;;16.00;1.00;;;;;;7361025;19;20022;-71
2023/11/01 10:55:46;;;;;;;1.02;0.52;;;16.00;1.00;;;;;;7360303;19;20078;-71
2023/11/01 10:58:24;;;;;;;2.05;0.60;;;16.10;1.00;;;;;;7361862;19;20033;-71
2023/11/01 11:01:06;;;;;;;1.58;0.60;;;16.30;1.00;;;;;;7360983;19;20014;-70
2023/11/01 11:03:44;;;;;;;1.63;0.60;;;16.40;1.00;;;;;;7355631;19;20559;-71
2023/11/01 11:06:17;;;;;;;2.78;0.80;;;16.20;1.00;;;;;;7361064;19;20043;-70
2023/11/01 11:09:21;;;;;;;2.50;0.70;;;16.30;1.00;;;;;;7360848;19;20109;-70
2023/11/01 11:12:19;;;;;;;1.85;0.65;;;16.30;1.00;;;;;;6852272;19;2004095;-70
2023/11/01 11:14:52;;;;;;;3.80;0.63;;;16.40;1.00;;;;;;6850561;19;2005018;-70
2023/11/01 11:17:24;;;;;;;1.35;0.60;;;16.40;1.00;;;;;;7361734;19;20013;-69
2023/11/01 11:20:13;;;;;;;1.17;0.47;;;16.30;1.00;;;;;;7360335;19;20006;-71
2023/11/01 11:23:13;;;;;;;3.60;0.88;;;16.40;1.00;;;;;;7352195;19;20010;-70
2023/11/01 11:25:54;;;;;;;1.38;0.57;;;16.40;1.00;;;;;;6849707;19;2005016;-71
2023/11/01 11:28:46;;;;;;;1.33;0.60;;;16.60;1.00;;;;;;7360009;19;20025;-71
2023/11/01 11:31:25;;;;;;;2.47;0.77;;;16.70;1.00;;;;;;6850828;19;2004863;-71
2023/11/01 11:34:14;;;;;;;2.25;0.70;;;16.60;1.00;;;;;;7357890;19;20093;-71
2023/11/01 11:37:11;;;;;;;4.28;0.70;;;16.40;1.00;;;;;;7357419;19;20518;-71
2023/11/01 11:39:56;;;;;;;3.25;0.70;;;16.50;1.00;;;;;;7358632;19;20011;-71
2023/11/01 11:42:48;;;;;;;2.15;0.50;;;16.50;1.00;;;;;;7360686;19;20467;-71
2023/11/01 11:45:38;;;;;;;1.98;0.60;;;16.50;1.00;;;;;;6850650;19;2004911;-71
2023/11/01 11:48:49;;;;;;;2.25;0.50;;;16.50;1.00;;;;;;6856874;19;2005060;-71
2023/11/01 11:51:19;;;;;;;1.17;0.57;;;16.50;1.00;;;;;;6856746;19;2005061;-71
2023/11/01 11:53:49;;;;;;;2.40;0.70;;;16.50;1.00;;;;;;7364369;19;20042;-71
2023/11/01 11:56:20;;;;;;;1.65;0.68;;;16.50;1.00;;;;;;7367267;19;20018;-70
2023/11/01 11:58:50;;;;;;;1.17;0.55;;;16.60;1.00;;;;;;7367343;19;20016;-71
2023/11/01 12:01:27;;;;;;;1.77;0.70;;;16.50;1.00;;;;;;7364968;19;20071;-70
2023/11/01 12:04:00;;;;;;;2.30;0.52;;;16.50;1.00;;;;;;7361963;19;20855;-70
2023/11/01 12:06:41;;;;;;;2.92;0.75;;;16.50;1.00;;;;;;7367876;19;20018;-70
2023/11/01 12:09:19;;;;;;;2.63;0.60;;;16.50;1.00;;;;;;7364578;19;20134;-71
2023/11/01 12:11:51;;;;;;;2.33;0.80;;;16.40;1.00;;;;;;7364963;19;20029;-71
2023/11/01 12:14:22;;;;;;;2.05;0.60;;;16.40;1.00;;;;;;7363782;19;20036;-71
2023/11/01 12:16:54;;;;;;;2.03;0.70;;;16.30;1.00;;;;;;7365797;19;20052;-70
2023/11/01 12:19:27;;;;;;;1.50;0.68;;;16.30;1.00;;;;;;7365663;19;21222;-70
2023/11/01 12:21:59;;;;;;;2.83;1.35;;;16.30;1.00;;;;;;7365002;19;20073;-71
2023/11/01 12:24:41;;;;;;;1.73;0.60;;;16.40;1.00;;;;;;7359150;19;20090;-71
2023/11/01 12:27:13;;;;;;;2.55;0.68;;;16.40;1.00;;;;;;7363416;19;20482;-70
2023/11/01 12:29:45;;;;;;;2.55;0.60;;;16.80;1.00;;;;;;7363717;19;20010;-71
2023/11/01 12:32:16;;;;;;;0.90;0.50;;;16.90;1.00;;;;;;7362157;19;20018;-71
2023/11/01 12:35:09;;;;;;;3.05;0.82;;;16.90;1.00;;;;;;7360252;19;20122;-70
2023/11/01 12:37:41;;;;;;;2.65;0.50;;;16.90;1.00;;;;;;7362105;19;20014;-71
2023/11/01 12:40:13;;;;;;;2.30;0.63;;;16.80;1.00;;;;;;7365707;19;20424;-71
2023/11/01 12:42:46;;;;;;;1.20;0.65;;;17.00;1.00;;;;;;7361288;19;20049;-71
2023/11/01 12:45:17;;;;;;;4.72;0.70;;;16.80;1.00;;;;;;7362835;19;20018;-71
2023/11/01 12:47:50;;;;;;;2.25;0.50;;;16.80;1.00;;;;;;7365059;19;20010;-71
2023/11/01 12:50:24;;;;;;;2.88;0.70;;;16.80;1.00;;;;;;7363968;19;20031;-71
2023/11/01 12:52:55;;;;;;;1.58;0.70;;;16.80;1.00;;;;;;7364021;19;20011;-70
2023/11/01 12:55:26;;;;;;;1.55;0.52;;;16.80;1.00;;;;;;7362610;19;20445;-72
2023/11/01 12:57:59;;;;;;;4.72;0.63;;;16.60;1.00;;;;;;7362514;19;20018;-74
2023/11/01 13:00:30;;;;;;;1.40;0.68;;;16.60;1.00;;;;;;7358145;19;20472;-71
2023/11/01 13:03:04;;;;;;;2.60;0.70;;;16.40;1.00;;;;;;7364823;19;20022;-70
2023/11/01 13:05:38;;;;;;;6.20;0.85;;;16.40;1.00;;;;;;7364945;19;20374;-71
2023/11/01 13:08:08;;;;;;;1.63;0.77;;;16.30;1.00;;;;;;7363891;19;20003;-70
2023/11/01 13:10:38;;;;;;;2.05;0.73;;;16.40;1.00;;;;;;7364590;19;21426;-71
2023/11/01 13:13:08;;;;;;;2.83;1.10;;;16.40;1.00;;;;;;7363199;19;20035;-71
2023/11/01 13:15:38;;;;;;;1.85;1.25;;;16.40;1.00;;;;;;7359851;19;20037;-71
2023/11/01 13:18:08;;;;;;;3.97;2.13;;;16.20;1.00;;;;;;7363799;19;20022;-71
2023/11/01 13:20:42;;;;;;;7.43;2.58;;;16.20;1.00;;;;;;7363935;19;20015;-70
2023/11/01 13:23:12;;;;;;;5.05;2.05;;;16.20;1.00;;;;;;7361187;19;20010;-70